createdAt,value
2019-05-10T00:03:22.602Z,5.30
2019-05-10T00:08:42.183Z,6.73
2019-05-10T00:13:48.753Z,6.37
2019-05-10T00:18:50.283Z,6.57
2019-05-10T00:23:51.765Z,5.43
2019-05-10T00:28:54.083Z,5.70
2019-05-10T00:33:55.536Z,5.40
2019-05-10T00:38:57.039Z,5.70
2019-05-10T00:43:58.500Z,6.80
2019-05-10T00:48:59.993Z,5.93
2019-05-10T00:54:02.584Z,6.73
2019-05-10T00:59:04.192Z,6.57
2019-05-10T01:04:05.614Z,5.93
2019-05-10T01:09:08.120Z,5.70
2019-05-10T01:14:09.499Z,6.13
2019-05-10T01:19:10.987Z,6.57
2019-05-10T01:24:12.426Z,7.00
2019-05-10T01:29:13.904Z,6.07
2019-05-10T01:34:16.321Z,6.97
2019-05-10T01:39:18.730Z,6.70
2019-05-10T01:44:20.187Z,7.50
2019-05-10T01:49:21.643Z,7.80
2019-05-10T01:54:23.126Z,7.57
2019-05-10T01:59:24.610Z,9.10
2019-05-10T02:04:26.077Z,9.97
2019-05-10T02:09:27.659Z,9.97
2019-05-10T02:14:29.014Z,9.57
2019-05-10T02:19:30.508Z,10.57
2019-05-10T02:24:31.984Z,11.07
2019-05-10T02:29:33.428Z,11.07
2019-05-10T02:34:34.918Z,12.03
2019-05-10T02:39:36.426Z,11.87
2019-05-10T02:44:37.895Z,12.10
2019-05-10T02:49:39.319Z,12.50
2019-05-10T02:54:42.821Z,12.20
2019-05-10T02:59:47.235Z,10.80
2019-05-10T03:04:52.479Z,11.03
2019-05-10T03:09:53.809Z,13.93
2019-05-10T03:14:58.434Z,13.50
2019-05-10T03:20:00.284Z,15.83
2019-05-10T03:25:05.373Z,18.43
2019-05-10T03:30:07.453Z,18.77
2019-05-10T03:35:10.164Z,18.13
2019-05-10T03:40:11.795Z,16.73
2019-05-10T03:45:13.357Z,16.80
2019-05-10T03:50:15.077Z,16.37
2019-05-10T03:55:17.533Z,14.63
2019-05-10T04:00:20.181Z,15.23
2019-05-10T04:05:21.731Z,16.90
2019-05-10T04:10:23.171Z,17.03
2019-05-10T04:15:25.574Z,17.20
2019-05-10T04:20:27.091Z,16.93
2019-05-10T04:25:28.539Z,17.40
2019-05-10T04:30:31.893Z,17.63
2019-05-10T04:35:35.524Z,16.67
2019-05-10T04:40:42.838Z,15.53
2019-05-10T04:45:46.420Z,14.50
2019-05-10T04:50:50.070Z,13.20
2019-05-10T04:55:51.485Z,13.07
2019-05-10T05:00:53.019Z,13.17
2019-05-10T05:05:55.393Z,13.10
2019-05-10T05:10:57.786Z,12.27
2019-05-10T05:15:59.246Z,12.13
2019-05-10T05:21:00.901Z,12.80
2019-05-10T05:26:05.503Z,13.73
2019-05-10T05:31:10.635Z,14.47
2019-05-10T05:36:12.218Z,13.23
2019-05-10T05:41:19.456Z,13.70
2019-05-10T05:46:23.030Z,11.10
2019-05-10T05:51:25.514Z,11.67
2019-05-10T05:56:26.893Z,12.53
2019-05-10T06:01:34.215Z,14.10
2019-05-10T06:06:38.754Z,16.57
2019-05-10T06:11:40.038Z,17.77
2019-05-10T06:16:44.996Z,19.13
2019-05-10T06:21:46.735Z,17.77
2019-05-10T06:26:49.253Z,17.30
2019-05-10T06:31:50.540Z,17.77
2019-05-10T06:36:51.899Z,19.33
2019-05-10T06:41:56.136Z,20.20
2019-05-10T06:52:10.171Z,19.57
2019-05-10T06:57:17.547Z,17.60
2019-05-10T07:02:20.049Z,19.77
2019-05-10T07:07:33.121Z,19.43
2019-05-10T07:12:22.530Z,20.70
2019-05-10T07:17:23.801Z,19.17
2019-05-10T07:22:26.856Z,19.80
2019-05-10T07:27:28.541Z,19.30
2019-05-10T07:32:30.052Z,17.60
2019-05-10T07:37:31.490Z,16.97
2019-05-10T07:42:32.961Z,17.17
2019-05-10T07:47:34.239Z,18.60
2019-05-10T07:52:43.168Z,17.10
2019-05-10T07:57:40.237Z,14.77
2019-05-10T08:02:44.360Z,11.43
2019-05-10T08:07:44.918Z,9.93
2019-05-10T08:12:52.370Z,10.50
2019-05-10T08:17:53.670Z,11.23
2019-05-10T08:22:55.181Z,10.30
2019-05-10T08:27:56.651Z,10.67
2019-05-10T08:33:00.193Z,11.50
2019-05-10T08:38:02.342Z,10.50
2019-05-10T08:43:15.613Z,10.27
2019-05-10T08:48:14.150Z,10.57
2019-05-10T08:53:16.664Z,10.10
2019-05-10T08:58:23.860Z,8.60
2019-05-10T09:03:22.717Z,8.60
2019-05-10T09:08:31.528Z,8.93
2019-05-10T09:13:54.637Z,8.20
2019-05-10T09:18:56.434Z,9.20
2019-05-10T09:24:04.888Z,6.93
2019-05-10T09:29:03.330Z,2.87
2019-05-10T09:34:06.786Z,3.33
2019-05-10T09:39:17.658Z,3.80
2019-05-10T09:44:15.979Z,4.30
2019-05-10T09:49:18.672Z,4.90
2019-05-10T09:54:23.376Z,5.37
2019-05-10T09:59:23.402Z,4.80
2019-05-10T10:04:28.286Z,4.40
2019-05-10T10:09:42.448Z,6.10
2019-05-10T10:14:47.097Z,5.23
2019-05-10T10:19:51.178Z,5.87
2019-05-10T10:25:00.521Z,6.67
2019-05-10T10:29:58.896Z,6.40
2019-05-10T10:35:07.893Z,7.30
2019-05-10T10:40:09.949Z,7.63
2019-05-10T10:45:18.595Z,6.90
2019-05-10T10:50:20.072Z,7.13
2019-05-10T10:55:30.523Z,6.57
2019-05-10T11:00:33.686Z,7.73
2019-05-10T11:05:35.233Z,7.73
2019-05-10T11:10:48.011Z,8.93
2019-05-10T11:16:09.977Z,9.33
2019-05-10T11:21:05.942Z,10.03
2019-05-10T11:26:07.410Z,8.70
2019-05-10T11:31:21.441Z,8.87
2019-05-10T11:36:31.085Z,8.40
2019-05-10T11:41:35.205Z,8.17
2019-05-10T11:46:50.640Z,8.07
2019-05-10T11:51:58.553Z,8.20
2019-05-10T12:02:10.335Z,8.40
2019-05-10T12:07:16.418Z,9.03
2019-05-10T12:12:29.703Z,11.80
2019-05-10T12:17:27.362Z,11.07
2019-05-10T12:22:37.579Z,11.03
2019-05-10T12:26:16.068Z,9.40
2019-05-10T12:27:44.399Z,10.10
2019-05-10T12:32:42.041Z,10.47
2019-05-10T12:37:49.471Z,9.80
2019-05-10T12:43:07.176Z,10.13
2019-05-10T12:48:10.618Z,10.60
2019-05-10T12:53:18.341Z,11.90
2019-05-10T12:58:45.212Z,12.23
2019-05-10T13:03:46.615Z,13.23
2019-05-10T13:09:08.282Z,12.03
2019-05-10T13:14:14.760Z,10.87
2019-05-10T13:19:20.265Z,11.30
2019-05-10T13:24:22.612Z,10.53
2019-05-10T13:29:25.935Z,10.97
2019-05-10T13:34:27.447Z,9.60
2019-05-10T13:39:41.169Z,9.30
2019-05-10T13:44:44.657Z,9.43
2019-05-10T13:49:49.547Z,9.73
2019-05-10T13:54:57.969Z,7.97
2019-05-10T14:00:07.305Z,9.17
2019-05-10T14:05:39.779Z,10.03
2019-05-10T14:11:20.307Z,9.30
2019-05-10T14:16:33.717Z,9.30
2019-05-10T14:21:37.340Z,9.10
2019-05-10T14:26:38.826Z,8.83
2019-05-10T14:31:49.194Z,9.17
2019-05-10T14:36:50.631Z,10.27
2019-05-10T14:41:55.314Z,9.70
2019-05-10T14:46:56.664Z,9.10
2019-05-10T14:52:32.747Z,9.10
2019-05-10T14:57:40.175Z,8.27
2019-05-10T15:02:50.839Z,8.70
2019-05-10T15:08:13.658Z,9.70
2019-05-10T15:13:25.901Z,9.47
2019-05-10T15:18:23.508Z,9.30
2019-05-10T15:23:25.901Z,8.67
2019-05-10T15:28:34.574Z,9.40
2019-05-10T15:33:34.815Z,9.40
2019-05-10T15:38:52.260Z,8.37
2019-05-10T15:43:55.009Z,8.70
2019-05-10T15:49:13.437Z,9.33
2019-05-10T15:54:13.118Z,9.60
2019-05-10T15:59:22.581Z,10.10
2019-05-10T16:04:27.121Z,10.20
2019-05-10T16:09:50.007Z,10.70
2019-05-10T16:14:49.178Z,11.23
2019-05-10T16:19:58.906Z,11.63
2019-05-10T16:25:00.872Z,13.70
2019-05-10T16:30:00.583Z,12.07
2019-05-10T16:35:12.408Z,12.80
2019-05-10T16:40:16.939Z,11.93
2019-05-10T16:45:29.249Z,11.50
2019-05-10T16:50:33.959Z,12.50
2019-05-10T16:55:57.243Z,12.70
2019-05-10T17:00:59.804Z,12.20
2019-05-10T17:06:04.219Z,13.43
2019-05-10T17:11:25.300Z,12.77
2019-05-10T17:16:26.579Z,13.50
2019-05-10T17:21:33.918Z,13.90
2019-05-10T17:26:38.468Z,12.60
2019-05-10T17:31:45.572Z,13.30
2019-05-10T17:37:08.187Z,12.17
2019-05-10T17:42:09.559Z,11.73
2019-05-10T17:47:10.867Z,11.30
2019-05-10T17:52:12.160Z,10.87
2019-05-10T17:57:16.593Z,11.53
2019-05-10T18:02:28.692Z,11.43
2019-05-10T18:07:33.227Z,12.00
2019-05-10T18:12:45.050Z,12.80
2019-05-10T18:18:07.856Z,12.10
2019-05-10T18:23:21.463Z,11.77
2019-05-10T18:28:22.419Z,11.80
2019-05-10T18:33:32.904Z,11.93
2019-05-10T18:38:40.959Z,11.97
2019-05-10T18:43:53.233Z,12.87
2019-05-10T18:48:57.788Z,13.03
2019-05-10T18:54:08.162Z,14.30
2019-05-10T18:59:09.650Z,13.63
2019-05-10T19:04:32.768Z,15.83
2019-05-10T19:09:37.244Z,12.87
2019-05-10T19:14:43.023Z,14.53
2019-05-10T19:19:53.288Z,14.83
2019-05-10T19:25:10.134Z,14.03
2019-05-10T19:30:19.911Z,16.00
2019-05-10T19:35:29.976Z,16.83
2019-05-10T19:40:32.346Z,15.83
2019-05-10T19:45:35.668Z,18.07
2019-05-10T19:50:40.198Z,17.90
2019-05-10T19:55:41.675Z,18.47
2019-05-10T20:00:44.172Z,20.47
2019-05-10T20:05:58.436Z,19.30
2019-05-10T20:10:59.929Z,18.17
2019-05-10T20:16:07.098Z,17.37
2019-05-10T20:21:17.658Z,19.93
2019-05-10T20:26:21.259Z,17.70
2019-05-10T20:31:22.779Z,18.13
2019-05-10T20:36:26.319Z,19.13
2019-05-10T20:41:27.773Z,18.73
2019-05-10T20:46:29.285Z,20.40
2019-05-10T20:51:31.672Z,21.63
2019-05-10T20:56:33.122Z,19.50
2019-05-10T21:01:34.719Z,18.17
2019-05-10T21:06:36.114Z,19.40
2019-05-10T21:11:37.552Z,17.80
2019-05-10T21:16:38.863Z,18.80
2019-05-10T21:21:46.112Z,17.87
2019-05-10T21:26:48.444Z,19.80
2019-05-10T21:31:49.913Z,18.83
2019-05-10T21:36:51.375Z,20.70
2019-05-10T21:41:54.088Z,20.07
2019-05-10T21:47:01.399Z,20.30
2019-05-10T21:52:03.892Z,20.97
2019-05-10T21:57:16.322Z,21.83
2019-05-10T22:02:21.502Z,21.43
2019-05-10T22:07:23.159Z,20.87
2019-05-10T22:12:25.115Z,20.83
2019-05-10T22:17:30.400Z,19.30
2019-05-10T22:22:39.942Z,21.37
2019-05-10T22:27:44.463Z,20.73
2019-05-10T22:32:53.939Z,20.37
2019-05-10T22:37:55.424Z,20.63
2019-05-10T22:42:56.872Z,21.83
2019-05-10T22:47:59.278Z,20.70
2019-05-10T22:53:00.781Z,20.70
2019-05-10T22:58:02.341Z,20.43
2019-05-10T23:03:04.965Z,19.20
2019-05-10T23:08:09.461Z,18.27
2019-05-10T23:13:10.941Z,18.83
2019-05-10T23:18:18.252Z,18.80
2019-05-10T23:23:21.072Z,19.40
2019-05-10T23:28:22.737Z,18.10
2019-05-10T23:33:24.224Z,17.70
2019-05-10T23:38:26.619Z,17.20
2019-05-10T23:43:29.003Z,17.00
2019-05-10T23:48:33.543Z,17.67
2019-05-10T23:53:35.013Z,17.77
2019-05-10T23:58:36.543Z,17.70
